sensor_id;sensor_type;location;lat;lon;timestamp;pressure;altitude;pressure_sealevel;temperature;humidity
19789;BME280;10054;59.332;18.244;2022-09-03T00:00:54;102020.52;;;6.64;100.00
19789;BME280;10054;59.332;18.244;2022-09-03T00:03:26;102018.38;;;6.62;100.00
19789;BME280;10054;59.332;18.244;2022-09-03T00:06:09;102019.28;;;6.61;100.00
19789;BME280;10054;59.332;18.244;2022-09-03T00:08:53;102019.28;;;6.61;100.00
19789;BME280;10054;59.332;18.244;2022-09-03T00:14:18;102025.39;;;6.61;100.00
19789;BME280;10054;59.332;18.244;2022-09-03T00:17:18;102027.08;;;6.64;100.00
19789;BME280;10054;59.332;18.244;2022-09-03T00:19:34;102027.52;;;6.63;100.00
19789;BME280;10054;59.332;18.244;2022-09-03T00:22:27;102020.59;;;6.61;100.00
19789;BME280;10054;59.332;18.244;2022-09-03T00:24:53;102024.56;;;6.59;100.00
19789;BME280;10054;59.332;18.244;2022-09-03T00:27:26;102021.11;;;6.57;100.00
19789;BME280;10054;59.332;18.244;2022-09-03T00:30:04;102026.42;;;6.54;100.00
19789;BME280;10054;59.332;18.244;2022-09-03T00:32:53;102020.81;;;6.51;100.00
19789;BME280;10054;59.332;18.244;2022-09-03T00:35:27;102016.53;;;6.47;100.00
19789;BME280;10054;59.332;18.244;2022-09-03T00:37:57;102020.95;;;6.45;100.00
19789;BME280;10054;59.332;18.244;2022-09-03T00:51:57;102033.05;;;6.32;100.00
19789;BME280;10054;59.332;18.244;2022-09-03T00:57:30;102030.53;;;6.27;100.00
19789;BME280;10054;59.332;18.244;2022-09-03T01:00:12;102032.33;;;6.25;100.00
19789;BME280;10054;59.332;18.244;2022-09-03T01:05:40;102036.19;;;6.28;100.00
19789;BME280;10054;59.332;18.244;2022-09-03T01:08:36;102040.05;;;6.31;100.00
19789;BME280;10054;59.332;18.244;2022-09-03T01:16:25;102031.53;;;6.41;100.00
19789;BME280;10054;59.332;18.244;2022-09-03T01:30:35;102025.91;;;6.57;100.00
19789;BME280;10054;59.332;18.244;2022-09-03T01:33:24;102026.66;;;6.63;100.00
19789;BME280;10054;59.332;18.244;2022-09-03T01:39:11;102026.72;;;6.77;100.00
19789;BME280;10054;59.332;18.244;2022-09-03T01:44:40;102025.52;;;6.90;100.00
19789;BME280;10054;59.332;18.244;2022-09-03T01:52:49;102024.76;;;7.03;100.00
19789;BME280;10054;59.332;18.244;2022-09-03T01:58:13;102030.27;;;7.10;100.00
19789;BME280;10054;59.332;18.244;2022-09-03T02:00:42;102032.31;;;7.15;100.00
19789;BME280;10054;59.332;18.244;2022-09-03T02:03:14;102026.42;;;7.23;100.00
19789;BME280;10054;59.332;18.244;2022-09-03T02:05:44;102026.27;;;7.30;100.00
19789;BME280;10054;59.332;18.244;2022-09-03T02:08:14;102019.58;;;7.34;100.00
19789;BME280;10054;59.332;18.244;2022-09-03T02:10:51;102024.30;;;7.38;100.00
19789;BME280;10054;59.332;18.244;2022-09-03T02:13:24;102018.51;;;7.41;100.00
19789;BME280;10054;59.332;18.244;2022-09-03T02:15:55;102022.33;;;7.44;100.00
19789;BME280;10054;59.332;18.244;2022-09-03T02:18:33;102022.21;;;7.49;100.00
19789;BME280;10054;59.332;18.244;2022-09-03T02:20:58;102019.05;;;7.52;100.00
19789;BME280;10054;59.332;18.244;2022-09-03T02:23:29;102022.00;;;7.56;100.00
19789;BME280;10054;59.332;18.244;2022-09-03T02:26:01;102021.88;;;7.61;100.00
19789;BME280;10054;59.332;18.244;2022-09-03T02:28:31;102021.34;;;7.65;100.00
19789;BME280;10054;59.332;18.244;2022-09-03T02:31:00;102015.55;;;7.68;100.00
19789;BME280;10054;59.332;18.244;2022-09-03T02:33:34;102013.66;;;7.73;100.00
19789;BME280;10054;59.332;18.244;2022-09-03T02:36:04;102012.20;;;7.78;100.00
19789;BME280;10054;59.332;18.244;2022-09-03T02:38:34;102006.41;;;7.81;100.00
19789;BME280;10054;59.332;18.244;2022-09-03T02:41:03;102013.75;;;7.85;100.00
19789;BME280;10054;59.332;18.244;2022-09-03T02:43:43;102012.84;;;7.86;100.00
19789;BME280;10054;59.332;18.244;2022-09-03T02:46:13;102017.61;;;7.88;100.00
19789;BME280;10054;59.332;18.244;2022-09-03T02:48:42;102009.63;;;7.91;100.00
19789;BME280;10054;59.332;18.244;2022-09-03T02:51:11;102010.91;;;7.93;100.00
19789;BME280;10054;59.332;18.244;2022-09-03T02:53:41;102017.43;;;7.94;100.00
19789;BME280;10054;59.332;18.244;2022-09-03T02:56:10;102013.89;;;7.95;100.00
19789;BME280;10054;59.332;18.244;2022-09-03T02:58:39;102018.24;;;7.96;100.00
19789;BME280;10054;59.332;18.244;2022-09-03T03:01:08;102012.48;;;7.98;100.00
19789;BME280;10054;59.332;18.244;2022-09-03T03:03:38;102005.02;;;7.99;100.00
19789;BME280;10054;59.332;18.244;2022-09-03T03:06:07;102003.25;;;8.00;100.00
19789;BME280;10054;59.332;18.244;2022-09-03T03:08:36;102008.05;;;8.00;100.00
19789;BME280;10054;59.332;18.244;2022-09-03T03:11:05;102006.73;;;8.00;100.00
19789;BME280;10054;59.332;18.244;2022-09-03T03:13:34;102007.59;;;8.01;100.00
19789;BME280;10054;59.332;18.244;2022-09-03T03:16:05;102008.91;;;8.01;100.00
19789;BME280;10054;59.332;18.244;2022-09-03T03:18:34;102007.14;;;8.01;100.00
19789;BME280;10054;59.332;18.244;2022-09-03T03:21:05;102008.87;;;8.02;100.00
19789;BME280;10054;59.332;18.244;2022-09-03T03:23:34;102016.30;;;8.03;100.00
19789;BME280;10054;59.332;18.244;2022-09-03T03:26:05;102012.77;;;8.04;100.00
19789;BME280;10054;59.332;18.244;2022-09-03T03:28:35;102010.09;;;8.05;100.00
19789;BME280;10054;59.332;18.244;2022-09-03T03:31:12;102005.33;;;8.03;100.00
19789;BME280;10054;59.332;18.244;2022-09-03T03:33:42;102009.27;;;8.03;100.00
19789;BME280;10054;59.332;18.244;2022-09-03T03:36:13;102011.86;;;8.05;100.00
19789;BME280;10054;59.332;18.244;2022-09-03T03:38:44;102008.78;;;8.05;100.00
19789;BME280;10054;59.332;18.244;2022-09-03T03:41:15;102004.42;;;8.04;100.00
19789;BME280;10054;59.332;18.244;2022-09-03T03:43:45;102007.91;;;8.05;100.00
19789;BME280;10054;59.332;18.244;2022-09-03T03:46:14;102003.56;;;8.04;100.00
19789;BME280;10054;59.332;18.244;2022-09-03T03:48:46;102008.37;;;8.04;100.00
19789;BME280;10054;59.332;18.244;2022-09-03T03:51:13;102007.91;;;8.05;100.00
19789;BME280;10054;59.332;18.244;2022-09-03T03:53:43;102002.61;;;8.06;100.00
19789;BME280;10054;59.332;18.244;2022-09-03T03:56:14;101995.13;;;8.07;100.00
19789;BME280;10054;59.332;18.244;2022-09-03T03:58:43;102003.38;;;8.10;100.00
19789;BME280;10054;59.332;18.244;2022-09-03T04:01:17;102001.57;;;8.12;100.00
19789;BME280;10054;59.332;18.244;2022-09-03T04:03:47;101996.72;;;8.13;100.00
19789;BME280;10054;59.332;18.244;2022-09-03T04:06:18;101999.70;;;8.15;100.00
19789;BME280;10054;59.332;18.244;2022-09-03T04:08:48;101997.41;;;8.18;100.00
19789;BME280;10054;59.332;18.244;2022-09-03T04:11:19;102000.45;;;8.19;100.00
19789;BME280;10054;59.332;18.244;2022-09-03T04:13:49;102004.30;;;8.22;100.00
19789;BME280;10054;59.332;18.244;2022-09-03T04:16:23;102005.52;;;8.25;100.00
19789;BME280;10054;59.332;18.244;2022-09-03T04:18:54;102000.11;;;8.30;100.00
19789;BME280;10054;59.332;18.244;2022-09-03T04:21:25;101991.26;;;8.34;100.00
19789;BME280;10054;59.332;18.244;2022-09-03T04:23:56;101999.00;;;8.38;100.00
19789;BME280;10054;59.332;18.244;2022-09-03T04:26:29;101996.69;;;8.42;100.00
19789;BME280;10054;59.332;18.244;2022-09-03T04:29:00;101995.72;;;8.45;100.00
19789;BME280;10054;59.332;18.244;2022-09-03T04:31:30;102002.20;;;8.48;100.00
19789;BME280;10054;59.332;18.244;2022-09-03T04:34:00;102005.59;;;8.51;100.00
19789;BME280;10054;59.332;18.244;2022-09-03T04:36:30;102007.72;;;8.53;100.00
19789;BME280;10054;59.332;18.244;2022-09-03T04:39:00;102001.50;;;8.56;100.00
19789;BME280;10054;59.332;18.244;2022-09-03T04:41:30;102004.03;;;8.59;100.00
19789;BME280;10054;59.332;18.244;2022-09-03T04:43:59;101997.41;;;8.61;100.00
19789;BME280;10054;59.332;18.244;2022-09-03T04:46:28;102003.89;;;8.64;100.00
19789;BME280;10054;59.332;18.244;2022-09-03T04:48:59;102009.05;;;8.67;100.00
19789;BME280;10054;59.332;18.244;2022-09-03T04:51:29;102004.60;;;8.69;100.00
19789;BME280;10054;59.332;18.244;2022-09-03T04:54:00;102006.22;;;8.73;100.00
19789;BME280;10054;59.332;18.244;2022-09-03T04:56:31;102013.52;;;8.78;100.00
19789;BME280;10054;59.332;18.244;2022-09-03T04:59:03;102008.55;;;8.82;100.00
19789;BME280;10054;59.332;18.244;2022-09-03T05:01:33;102013.16;;;8.88;100.00
19789;BME280;10054;59.332;18.244;2022-09-03T05:04:02;102012.06;;;8.94;100.00
19789;BME280;10054;59.332;18.244;2022-09-03T05:06:32;102003.55;;;8.99;100.00
19789;BME280;10054;59.332;18.244;2022-09-03T05:09:02;102007.35;;;9.04;100.00
19789;BME280;10054;59.332;18.244;2022-09-03T05:11:31;102005.83;;;9.10;100.00
19789;BME280;10054;59.332;18.244;2022-09-03T05:14:02;102012.25;;;9.14;100.00
19789;BME280;10054;59.332;18.244;2022-09-03T05:16:32;102002.02;;;9.18;100.00
19789;BME280;10054;59.332;18.244;2022-09-03T05:19:01;102005.35;;;9.23;100.00
19789;BME280;10054;59.332;18.244;2022-09-03T05:21:32;102007.31;;;9.30;100.00
19789;BME280;10054;59.332;18.244;2022-09-03T05:24:03;102012.83;;;9.36;100.00
19789;BME280;10054;59.332;18.244;2022-09-03T05:26:35;102013.06;;;9.41;100.00
19789;BME280;10054;59.332;18.244;2022-09-03T05:29:06;102020.86;;;9.44;100.00
19789;BME280;10054;59.332;18.244;2022-09-03T05:31:37;102021.56;;;9.49;100.00
19789;BME280;10054;59.332;18.244;2022-09-03T05:34:07;102019.67;;;9.53;100.00
19789;BME280;10054;59.332;18.244;2022-09-03T05:36:37;102019.97;;;9.57;100.00
19789;BME280;10054;59.332;18.244;2022-09-03T05:39:06;102019.80;;;9.62;100.00
19789;BME280;10054;59.332;18.244;2022-09-03T05:41:35;102019.23;;;9.65;100.00
19789;BME280;10054;59.332;18.244;2022-09-03T05:44:04;102024.77;;;9.69;100.00
19789;BME280;10054;59.332;18.244;2022-09-03T05:46:34;102016.69;;;9.74;100.00
19789;BME280;10054;59.332;18.244;2022-09-03T05:49:05;102023.51;;;9.79;100.00
19789;BME280;10054;59.332;18.244;2022-09-03T05:51:36;102017.16;;;9.85;100.00
19789;BME280;10054;59.332;18.244;2022-09-03T05:54:07;102018.98;;;9.95;100.00
19789;BME280;10054;59.332;18.244;2022-09-03T05:56:38;102015.32;;;9.99;100.00
19789;BME280;10054;59.332;18.244;2022-09-03T05:59:09;102016.92;;;10.03;100.00
19789;BME280;10054;59.332;18.244;2022-09-03T06:01:41;102019.38;;;10.07;100.00
19789;BME280;10054;59.332;18.244;2022-09-03T06:04:15;102019.78;;;10.08;100.00
19789;BME280;10054;59.332;18.244;2022-09-03T06:06:45;102017.61;;;10.08;100.00
19789;BME280;10054;59.332;18.244;2022-09-03T06:09:19;102019.67;;;10.11;100.00
19789;BME280;10054;59.332;18.244;2022-09-03T06:11:49;102023.16;;;10.12;100.00
19789;BME280;10054;59.332;18.244;2022-09-03T06:14:19;102024.37;;;10.15;100.00
19789;BME280;10054;59.332;18.244;2022-09-03T06:16:49;102023.39;;;10.17;100.00
19789;BME280;10054;59.332;18.244;2022-09-03T06:19:19;102025.56;;;10.18;100.00
19789;BME280;10054;59.332;18.244;2022-09-03T06:21:48;102027.29;;;10.19;100.00
19789;BME280;10054;59.332;18.244;2022-09-03T06:24:19;102027.72;;;10.20;100.00
19789;BME280;10054;59.332;18.244;2022-09-03T06:26:51;102030.38;;;10.18;100.00
19789;BME280;10054;59.332;18.244;2022-09-03T06:29:20;102022.59;;;10.15;100.00
19789;BME280;10054;59.332;18.244;2022-09-03T06:31:49;102030.50;;;10.15;100.00
19789;BME280;10054;59.332;18.244;2022-09-03T06:34:18;102029.19;;;10.15;100.00
19789;BME280;10054;59.332;18.244;2022-09-03T06:36:49;102035.26;;;10.17;100.00
19789;BME280;10054;59.332;18.244;2022-09-03T06:39:18;102037.41;;;10.19;100.00
19789;BME280;10054;59.332;18.244;2022-09-03T06:41:47;102038.67;;;10.21;100.00
19789;BME280;10054;59.332;18.244;2022-09-03T06:44:20;102039.02;;;10.24;100.00
19789;BME280;10054;59.332;18.244;2022-09-03T06:46:49;102038.03;;;10.26;100.00
19789;BME280;10054;59.332;18.244;2022-09-03T06:49:20;102037.92;;;10.29;100.00
19789;BME280;10054;59.332;18.244;2022-09-03T06:51:49;102037.80;;;10.32;100.00
19789;BME280;10054;59.332;18.244;2022-09-03T06:54:18;102034.70;;;10.33;100.00
19789;BME280;10054;59.332;18.244;2022-09-03T06:56:47;102034.58;;;10.36;100.00
19789;BME280;10054;59.332;18.244;2022-09-03T06:59:16;102040.14;;;10.40;100.00
19789;BME280;10054;59.332;18.244;2022-09-03T07:01:45;102039.59;;;10.42;100.00
19789;BME280;10054;59.332;18.244;2022-09-03T07:04:14;102042.63;;;10.43;100.00
19789;BME280;10054;59.332;18.244;2022-09-03T07:06:43;102039.13;;;10.42;100.00
19789;BME280;10054;59.332;18.244;2022-09-03T07:09:13;102038.61;;;10.44;100.00
19789;BME280;10054;59.332;18.244;2022-09-03T07:11:43;102041.59;;;10.47;100.00
19789;BME280;10054;59.332;18.244;2022-09-03T07:14:17;102039.29;;;10.49;100.00
19789;BME280;10054;59.332;18.244;2022-09-03T07:16:47;102033.55;;;10.50;100.00
19789;BME280;10054;59.332;18.244;2022-09-03T07:19:17;102037.45;;;10.51;100.00
19789;BME280;10054;59.332;18.244;2022-09-03T07:21:46;102034.23;;;10.55;100.00
19789;BME280;10054;59.332;18.244;2022-09-03T07:24:15;102042.02;;;10.58;100.00
19789;BME280;10054;59.332;18.244;2022-09-03T07:26:44;102047.70;;;10.59;100.00
19789;BME280;10054;59.332;18.244;2022-09-03T07:29:15;102047.12;;;10.63;100.00
19789;BME280;10054;59.332;18.244;2022-09-03T07:31:46;102050.83;;;10.69;100.00
19789;BME280;10054;59.332;18.244;2022-09-03T07:34:18;102049.79;;;10.73;100.00
19789;BME280;10054;59.332;18.244;2022-09-03T07:36:49;102052.58;;;10.80;100.00
19789;BME280;10054;59.332;18.244;2022-09-03T07:39:19;102056.81;;;10.84;100.00
19789;BME280;10054;59.332;18.244;2022-09-03T07:41:48;102057.16;;;10.86;100.00
19789;BME280;10054;59.332;18.244;2022-09-03T07:44:18;102058.81;;;10.89;100.00
19789;BME280;10054;59.332;18.244;2022-09-03T07:46:47;102064.02;;;10.91;100.00
19789;BME280;10054;59.332;18.244;2022-09-03T07:49:17;102068.32;;;10.93;100.00
19789;BME280;10054;59.332;18.244;2022-09-03T07:51:46;102075.72;;;10.95;100.00
19789;BME280;10054;59.332;18.244;2022-09-03T07:54:17;102074.21;;;11.00;100.00
19789;BME280;10054;59.332;18.244;2022-09-03T07:56:48;102076.27;;;11.03;100.00
19789;BME280;10054;59.332;18.244;2022-09-03T07:59:17;102074.81;;;11.06;100.00
19789;BME280;10054;59.332;18.244;2022-09-03T08:01:47;102078.06;;;11.13;100.00
19789;BME280;10054;59.332;18.244;2022-09-03T08:04:18;102075.72;;;11.15;100.00
19789;BME280;10054;59.332;18.244;2022-09-03T08:06:48;102074.21;;;11.20;100.00
19789;BME280;10054;59.332;18.244;2022-09-03T08:09:21;102077.92;;;11.26;100.00
19789;BME280;10054;59.332;18.244;2022-09-03T08:11:50;102076.59;;;11.26;100.00
19789;BME280;10054;59.332;18.244;2022-09-03T08:14:19;102074.69;;;11.30;100.00
19789;BME280;10054;59.332;18.244;2022-09-03T08:16:48;102079.97;;;11.30;100.00
19789;BME280;10054;59.332;18.244;2022-09-03T08:19:19;102080.16;;;11.25;100.00
19789;BME280;10054;59.332;18.244;2022-09-03T08:21:49;102079.05;;;11.31;100.00
19789;BME280;10054;59.332;18.244;2022-09-03T08:24:18;102077.53;;;11.35;100.00
19789;BME280;10054;59.332;18.244;2022-09-03T08:26:51;102068.16;;;11.38;100.00
19789;BME280;10054;59.332;18.244;2022-09-03T08:29:21;102074.30;;;11.39;100.00
19789;BME280;10054;59.332;18.244;2022-09-03T08:31:50;102072.19;;;11.47;100.00
19789;BME280;10054;59.332;18.244;2022-09-03T08:34:20;102077.34;;;11.50;100.00
19789;BME280;10054;59.332;18.244;2022-09-03T08:36:50;102081.83;;;11.58;100.00
19789;BME280;10054;59.332;18.244;2022-09-03T08:39:19;102089.96;;;11.64;100.00
19789;BME280;10054;59.332;18.244;2022-09-03T08:41:59;102084.08;;;11.67;100.00
19789;BME280;10054;59.332;18.244;2022-09-03T08:55:09;102071.52;;;11.62;96.85
19789;BME280;10054;59.332;18.244;2022-09-03T08:57:36;102080.25;;;11.64;97.13
19789;BME280;10054;59.332;18.244;2022-09-03T09:00:05;102079.66;;;11.68;97.46
19789;BME280;10054;59.332;18.244;2022-09-03T09:02:52;102080.44;;;11.70;95.50
19789;BME280;10054;59.332;18.244;2022-09-03T09:05:19;102078.28;;;11.79;96.29
19789;BME280;10054;59.332;18.244;2022-09-03T09:08:02;102087.34;;;11.84;94.56
19789;BME280;10054;59.332;18.244;2022-09-03T09:13:43;102079.56;;;11.90;93.64
19789;BME280;10054;59.332;18.244;2022-09-03T09:16:13;102084.85;;;11.90;90.76
19789;BME280;10054;59.332;18.244;2022-09-03T09:21:21;102085.30;;;11.99;90.78
19789;BME280;10054;59.332;18.244;2022-09-03T09:23:50;102086.02;;;12.03;91.60
19789;BME280;10054;59.332;18.244;2022-09-03T09:26:21;102088.52;;;12.06;92.29
19789;BME280;10054;59.332;18.244;2022-09-03T09:28:58;102082.63;;;12.09;91.86
19789;BME280;10054;59.332;18.244;2022-09-03T09:31:22;102084.67;;;12.13;91.37
19789;BME280;10054;59.332;18.244;2022-09-03T09:33:51;102080.56;;;12.16;92.24
19789;BME280;10054;59.332;18.244;2022-09-03T09:36:22;102086.64;;;12.18;91.58
19789;BME280;10054;59.332;18.244;2022-09-03T09:38:51;102080.42;;;12.19;89.14
19789;BME280;10054;59.332;18.244;2022-09-03T09:41:20;102078.92;;;12.13;87.33
19789;BME280;10054;59.332;18.244;2022-09-03T09:44:01;102080.10;;;12.16;86.65
19789;BME280;10054;59.332;18.244;2022-09-03T09:46:37;102086.92;;;12.12;82.73
19789;BME280;10054;59.332;18.244;2022-09-03T09:49:30;102086.86;;;12.13;85.62
19789;BME280;10054;59.332;18.244;2022-09-03T09:52:09;102081.42;;;12.16;83.59
19789;BME280;10054;59.332;18.244;2022-09-03T09:54:44;102083.75;;;12.14;83.85
19789;BME280;10054;59.332;18.244;2022-09-03T09:57:20;102078.06;;;12.13;83.19
19789;BME280;10054;59.332;18.244;2022-09-03T09:59:47;102084.53;;;12.16;84.09
19789;BME280;10054;59.332;18.244;2022-09-03T10:02:25;102082.35;;;12.15;81.83
19789;BME280;10054;59.332;18.244;2022-09-03T10:04:59;102082.03;;;12.13;82.00
19789;BME280;10054;59.332;18.244;2022-09-03T10:07:29;102072.95;;;12.18;83.42
19789;BME280;10054;59.332;18.244;2022-09-03T10:10:13;102075.92;;;12.21;81.27
19789;BME280;10054;59.332;18.244;2022-09-03T10:12:41;102076.97;;;12.27;84.81
19789;BME280;10054;59.332;18.244;2022-09-03T10:15:21;102082.83;;;12.34;84.38
19789;BME280;10054;59.332;18.244;2022-09-03T10:18:02;102083.08;;;12.38;83.81
19789;BME280;10054;59.332;18.244;2022-09-03T10:20:50;102080.69;;;12.42;83.16
19789;BME280;10054;59.332;18.244;2022-09-03T10:23:26;102082.58;;;12.48;83.56
19789;BME280;10054;59.332;18.244;2022-09-03T10:26:12;102085.87;;;12.54;83.22
19789;BME280;10054;59.332;18.244;2022-09-03T10:28:45;102079.89;;;12.59;82.66
19789;BME280;10054;59.332;18.244;2022-09-03T10:46:00;102064.14;;;13.00;76.95
19789;BME280;10054;59.332;18.244;2022-09-03T10:48:34;102066.27;;;13.11;76.28
19789;BME280;10054;59.332;18.244;2022-09-03T10:59:48;102073.78;;;13.20;75.35
19789;BME280;10054;59.332;18.244;2022-09-03T11:05:11;102069.23;;;13.13;73.97
19789;BME280;10054;59.332;18.244;2022-09-03T11:07:43;102071.71;;;13.08;73.98
19789;BME280;10054;59.332;18.244;2022-09-03T11:12:54;102062.12;;;13.05;73.60
19789;BME280;10054;59.332;18.244;2022-09-03T11:15:36;102068.13;;;13.09;73.21
19789;BME280;10054;59.332;18.244;2022-09-03T11:21:13;102065.13;;;13.25;74.02
19789;BME280;10054;59.332;18.244;2022-09-03T11:23:43;102060.37;;;13.32;73.55
19789;BME280;10054;59.332;18.244;2022-09-03T11:26:16;102057.03;;;13.37;74.03
19789;BME280;10054;59.332;18.244;2022-09-03T11:28:57;102057.03;;;13.37;74.03
19789;BME280;10054;59.332;18.244;2022-09-03T11:34:06;102067.36;;;13.41;74.31
19789;BME280;10054;59.332;18.244;2022-09-03T11:36:37;102059.72;;;13.53;74.09
19789;BME280;10054;59.332;18.244;2022-09-03T11:39:24;102059.72;;;13.53;74.09
19789;BME280;10054;59.332;18.244;2022-09-03T11:42:02;102037.81;;;13.49;72.66
19789;BME280;10054;59.332;18.244;2022-09-03T11:44:40;102037.81;;;13.49;72.66
19789;BME280;10054;59.332;18.244;2022-09-03T11:47:24;102046.28;;;13.64;73.55
19789;BME280;10054;59.332;18.244;2022-09-03T11:50:03;102046.28;;;13.64;73.55
19789;BME280;10054;59.332;18.244;2022-09-03T11:52:27;102054.06;;;13.76;72.78
19789;BME280;10054;59.332;18.244;2022-09-03T11:54:56;102051.25;;;13.79;71.81
19789;BME280;10054;59.332;18.244;2022-09-03T11:57:27;102054.68;;;13.81;69.63
19789;BME280;10054;59.332;18.244;2022-09-03T12:00:12;102044.70;;;13.77;68.81
19789;BME280;10054;59.332;18.244;2022-09-03T12:02:46;102050.72;;;13.72;66.72
19789;BME280;10054;59.332;18.244;2022-09-03T12:10:52;102045.27;;;13.67;67.82
19789;BME280;10054;59.332;18.244;2022-09-03T12:13:28;102050.01;;;13.77;68.62
19789;BME280;10054;59.332;18.244;2022-09-03T12:18:41;102053.11;;;13.86;68.53
19789;BME280;10054;59.332;18.244;2022-09-03T12:21:12;102038.83;;;13.88;67.71
19789;BME280;10054;59.332;18.244;2022-09-03T12:23:48;102046.76;;;13.97;68.51
19789;BME280;10054;59.332;18.244;2022-09-03T12:26:19;102041.03;;;14.04;69.44
19789;BME280;10054;59.332;18.244;2022-09-03T12:28:52;102043.83;;;14.10;69.67
19789;BME280;10054;59.332;18.244;2022-09-03T12:31:24;102043.06;;;14.08;68.09
19789;BME280;10054;59.332;18.244;2022-09-03T12:34:06;102046.02;;;14.10;68.03
19789;BME280;10054;59.332;18.244;2022-09-03T12:36:47;102040.81;;;14.16;68.32
19789;BME280;10054;59.332;18.244;2022-09-03T12:39:24;102037.13;;;14.19;68.27
19789;BME280;10054;59.332;18.244;2022-09-03T12:42:08;102039.53;;;14.23;68.75
19789;BME280;10054;59.332;18.244;2022-09-03T12:44:39;102035.21;;;14.29;68.84
19789;BME280;10054;59.332;18.244;2022-09-03T12:47:16;102037.73;;;14.39;69.16
19789;BME280;10054;59.332;18.244;2022-09-03T12:49:56;102039.70;;;14.44;68.24
19789;BME280;10054;59.332;18.244;2022-09-03T12:52:32;102035.62;;;14.46;66.79
19789;BME280;10054;59.332;18.244;2022-09-03T12:55:18;102038.93;;;14.42;65.65
19789;BME280;10054;59.332;18.244;2022-09-03T12:57:52;102042.44;;;14.43;66.19
19789;BME280;10054;59.332;18.244;2022-09-03T13:00:17;102041.41;;;14.45;65.91
19789;BME280;10054;59.332;18.244;2022-09-03T13:05:29;102034.56;;;14.41;65.47
19789;BME280;10054;59.332;18.244;2022-09-03T13:07:52;102037.43;;;14.45;66.23
19789;BME280;10054;59.332;18.244;2022-09-03T13:10:34;102025.02;;;14.46;66.90
19789;BME280;10054;59.332;18.244;2022-09-03T13:13:25;102031.00;;;14.50;67.69
19789;BME280;10054;59.332;18.244;2022-09-03T13:16:16;102035.76;;;14.52;67.83
19789;BME280;10054;59.332;18.244;2022-09-03T13:21:31;102037.38;;;14.54;66.37
19789;BME280;10054;59.332;18.244;2022-09-03T13:24:23;102035.11;;;14.55;66.16
19789;BME280;10054;59.332;18.244;2022-09-03T13:32:35;102038.33;;;14.53;66.45
19789;BME280;10054;59.332;18.244;2022-09-03T13:35:08;102038.03;;;14.51;67.06
19789;BME280;10054;59.332;18.244;2022-09-03T13:42:54;102037.26;;;14.49;66.69
19789;BME280;10054;59.332;18.244;2022-09-03T13:45:36;102027.02;;;14.50;66.49
19789;BME280;10054;59.332;18.244;2022-09-03T13:48:16;102032.16;;;14.53;66.63
19789;BME280;10054;59.332;18.244;2022-09-03T13:51:12;102029.42;;;14.54;65.98
19789;BME280;10054;59.332;18.244;2022-09-03T13:53:45;102032.55;;;14.54;65.51
19789;BME280;10054;59.332;18.244;2022-09-03T13:56:22;102032.16;;;14.53;65.99
19789;BME280;10054;59.332;18.244;2022-09-03T13:59:00;102031.77;;;14.52;65.79
19789;BME280;10054;59.332;18.244;2022-09-03T14:01:42;102026.08;;;14.51;66.28
19789;BME280;10054;59.332;18.244;2022-09-03T14:04:10;102027.32;;;14.52;66.84
19789;BME280;10054;59.332;18.244;2022-09-03T14:06:45;102028.27;;;14.51;66.69
19789;BME280;10054;59.332;18.244;2022-09-03T14:09:50;102020.56;;;14.46;66.08
19789;BME280;10054;59.332;18.244;2022-09-03T14:20:32;102017.55;;;14.53;66.71
19789;BME280;10054;59.332;18.244;2022-09-03T14:23:06;102022.69;;;14.56;66.83
19789;BME280;10054;59.332;18.244;2022-09-03T14:25:35;102013.19;;;14.52;65.79
19789;BME280;10054;59.332;18.244;2022-09-03T14:29:03;102016.61;;;14.54;66.50
19789;BME280;10054;59.332;18.244;2022-09-03T14:30:50;102021.53;;;14.53;66.92
19789;BME280;10054;59.332;18.244;2022-09-03T14:33:25;102018.88;;;14.53;66.48
19789;BME280;10054;59.332;18.244;2022-09-03T14:36:44;102011.86;;;14.52;66.41
19789;BME280;10054;59.332;18.244;2022-09-03T14:41:29;102011.73;;;14.46;65.92
19789;BME280;10054;59.332;18.244;2022-09-03T15:06:50;101994.28;;;14.33;68.95
19789;BME280;10054;59.332;18.244;2022-09-03T15:09:22;101996.08;;;14.33;69.26
19789;BME280;10054;59.332;18.244;2022-09-03T15:12:05;101998.26;;;14.33;70.13
19789;BME280;10054;59.332;18.244;2022-09-03T15:14:41;101996.63;;;14.31;70.40
19789;BME280;10054;59.332;18.244;2022-09-03T15:20:31;101988.16;;;14.24;70.70
19789;BME280;10054;59.332;18.244;2022-09-03T15:23:10;101997.62;;;14.21;70.56
19789;BME280;10054;59.332;18.244;2022-09-03T15:31:39;101998.90;;;14.14;71.63
19789;BME280;10054;59.332;18.244;2022-09-03T15:33:49;101995.95;;;14.11;72.09
19789;BME280;10054;59.332;18.244;2022-09-03T15:36:21;101990.45;;;14.07;71.98
19789;BME280;10054;59.332;18.244;2022-09-03T15:39:05;101996.40;;;14.04;72.08
19789;BME280;10054;59.332;18.244;2022-09-03T15:41:42;101992.03;;;14.03;72.39
19789;BME280;10054;59.332;18.244;2022-09-03T15:44:14;101993.36;;;14.03;73.04
19789;BME280;10054;59.332;18.244;2022-09-03T15:46:57;101996.95;;;14.02;73.23
19789;BME280;10054;59.332;18.244;2022-09-03T15:49:31;101995.23;;;14.01;73.05
19789;BME280;10054;59.332;18.244;2022-09-03T16:00:19;101993.39;;;13.94;73.96
19789;BME280;10054;59.332;18.244;2022-09-03T16:03:09;102003.53;;;13.95;74.33
19789;BME280;10054;59.332;18.244;2022-09-03T16:05:49;101995.19;;;13.94;74.79